Time;durP1;ratioP1;P1;durP2;ratioP2;P2;SDS_P1;SDS_P2;PMS_P1;PMS_P2;Temp;Humidity;BMP_temperature;BMP_pressure;BME280_temperature;BME280_humidity;BME280_pressure;Samples;Min_cycle;Max_cycle;Signal;HPM_P1;HPM_P2
2022/09/17 04:48:00;;;;;;;;;;;;;;;-145.06;100.00;60892.56;5991057;22;19915;-94
2022/09/17 04:50:48;;;;;;;0.57;0.38;;;;;;;-145.06;100.00;60892.56;5979484;23;19908;-92
2022/09/17 05:12:03;;;;;;;;;;;;;;;-145.06;100.00;60892.56;6000061;22;20354;-94
2022/09/17 05:33:19;;;;;;;;;;;;;;;-145.06;100.00;60892.56;5985095;22;20022;-89
2022/09/17 05:35:58;;;;;;;1.58;0.40;;;;;;;-145.06;100.00;60892.56;5972526;23;20455;-89
2022/09/17 05:38:37;;;;;;;0.93;0.45;;;;;;;-145.06;100.00;60892.56;5972971;23;20004;-89
2022/09/17 05:41:16;;;;;;;1.17;0.80;;;;;;;-145.06;100.00;60892.56;5973250;23;20032;-90
2022/09/17 05:43:55;;;;;;;1.13;0.50;;;;;;;-145.06;100.00;60892.56;5974484;23;20012;-90
2022/09/17 05:46:34;;;;;;;1.27;0.40;;;;;;;-145.06;100.00;60892.56;5973200;23;20231;-90
2022/09/17 05:49:14;;;;;;;1.58;0.50;;;;;;;-145.06;100.00;60892.56;5974133;23;20269;-91
2022/09/17 05:51:53;;;;;;;1.45;0.40;;;;;;;-145.06;100.00;60892.56;5974109;23;20004;-90
2022/09/17 05:54:31;;;;;;;1.08;0.60;;;;;;;-145.06;100.00;60892.56;5973953;23;20004;-89
2022/09/17 05:57:11;;;;;;;1.33;0.50;;;;;;;-145.06;100.00;60892.56;5974113;23;20008;-90
2022/09/17 05:59:50;;;;;;;1.57;0.43;;;;;;;-145.06;100.00;60892.56;5973810;23;20027;-91
2022/09/17 06:02:29;;;;;;;0.90;0.40;;;;;;;-145.06;100.00;60892.56;5973779;23;20004;-89
2022/09/17 06:05:08;;;;;;;0.47;0.30;;;;;;;-145.06;100.00;60892.56;5973865;23;20004;-90
2022/09/17 06:07:47;;;;;;;3.00;0.50;;;;;;;-145.06;100.00;60892.56;5973792;23;20005;-89
2022/09/17 06:10:26;;;;;;;4.28;0.68;;;;;;;-145.06;100.00;60892.56;5973906;23;20016;-90
2022/09/17 06:13:05;;;;;;;2.60;0.50;;;;;;;-145.06;100.00;60892.56;6005529;23;20009;-90
2022/09/17 06:15:52;;;;;;;1.13;0.40;;;;;;;-145.06;100.00;60892.56;5973012;23;20305;-91
2022/09/17 06:18:31;;;;;;;1.88;0.68;;;;;;;-145.06;100.00;60892.56;5973058;23;20036;-91
2022/09/17 06:21:10;;;;;;;0.85;0.43;;;;;;;-145.06;100.00;60892.56;5972779;23;20004;-92
2022/09/17 06:23:49;;;;;;;1.02;0.50;;;;;;;-145.06;100.00;60892.56;5973159;23;20008;-90
2022/09/17 06:26:28;;;;;;;;;;;;;;;-145.06;100.00;60892.56;5973335;23;20001;-91
2022/09/17 06:29:07;;;;;;;1.33;0.50;;;;;;;-145.06;100.00;60892.56;5972680;23;19939;-90
2022/09/17 06:31:47;;;;;;;1.95;0.65;;;;;;;-145.06;100.00;60892.56;5973093;23;20031;-91
2022/09/17 06:34:26;;;;;;;;;;;;;;;-145.06;100.00;60892.56;5973467;23;20004;-90
2022/09/17 06:37:06;;;;;;;1.27;0.40;;;;;;;-145.06;100.00;60892.56;5973739;23;19907;-91
2022/09/17 06:39:45;;;;;;;0.93;0.50;;;;;;;-145.06;100.00;60892.56;5972796;23;20036;-90
2022/09/17 06:42:30;;;;;;;1.45;0.40;;;;;;;-145.06;100.00;60892.56;5973054;23;20253;-89
2022/09/17 06:45:09;;;;;;;0.88;0.38;;;;;;;-145.06;100.00;60892.56;5973458;23;20000;-91
2022/09/17 06:47:48;;;;;;;1.63;0.50;;;;;;;-145.06;100.00;60892.56;5973086;23;20028;-90
2022/09/17 06:50:27;;;;;;;1.85;0.45;;;;;;;-145.06;100.00;60892.56;5972242;23;20446;-91
2022/09/17 06:53:06;;;;;;;2.45;0.50;;;;;;;-145.06;100.00;60892.56;5972631;23;20589;-90
2022/09/17 06:55:45;;;;;;;2.10;0.55;;;;;;;-145.06;100.00;60892.56;5972783;23;20012;-91
2022/09/17 06:58:24;;;;;;;2.00;0.55;;;;;;;-145.06;100.00;60892.56;5972989;23;20008;-90
2022/09/17 07:01:04;;;;;;;0.80;0.50;;;;;;;-145.06;100.00;60892.56;5972812;23;20008;-90
2022/09/17 07:03:43;;;;;;;;;;;;;;;-145.06;100.00;60892.56;5973486;23;20005;-90
2022/09/17 07:06:22;;;;;;;2.70;0.55;;;;;;;-145.06;100.00;60892.56;5973396;23;19907;-89
2022/09/17 07:09:01;;;;;;;0.97;0.40;;;;;;;-145.06;100.00;60892.56;5972336;23;20165;-91
2022/09/17 07:11:40;;;;;;;1.33;0.40;;;;;;;-145.06;100.00;60892.56;5973637;23;20008;-90
2022/09/17 07:14:19;;;;;;;0.95;0.52;;;;;;;-145.06;100.00;60892.56;5973291;23;20901;-92
2022/09/17 07:16:58;;;;;;;0.70;0.40;;;;;;;-145.06;100.00;60892.56;5972582;23;20008;-91
2022/09/17 07:19:37;;;;;;;0.82;0.40;;;;;;;-145.06;100.00;60892.56;5973467;23;20341;-90
2022/09/17 07:22:17;;;;;;;1.17;0.33;;;;;;;-145.06;100.00;60892.56;5973735;23;20443;-91
2022/09/17 07:24:56;;;;;;;1.58;0.50;;;;;;;-145.06;100.00;60892.56;5972978;23;20005;-91
2022/09/17 07:27:35;;;;;;;0.50;0.40;;;;;;;-145.06;100.00;60892.56;5973312;23;20012;-91
2022/09/17 07:30:14;;;;;;;1.48;0.60;;;;;;;-145.06;100.00;60892.56;5973253;23;20013;-91
2022/09/17 07:32:53;;;;;;;3.03;0.68;;;;;;;-145.06;100.00;60892.56;5973512;23;20000;-90
2022/09/17 07:35:31;;;;;;;3.05;0.75;;;;;;;-145.06;100.00;60892.56;5973232;23;20083;-90
2022/09/17 07:38:11;;;;;;;2.13;0.67;;;;;;;-145.06;100.00;60892.56;5973218;23;20040;-90
2022/09/17 07:40:57;;;;;;;1.80;0.57;;;;;;;-145.06;100.00;60892.56;6005674;23;20030;-89
2022/09/17 07:43:36;;;;;;;0.80;0.50;;;;;;;-145.06;100.00;60892.56;6030688;22;20004;-90
2022/09/17 07:46:18;;;;;;;1.70;0.70;;;;;;;-145.06;100.00;60892.56;5992057;23;20012;-90
2022/09/17 07:48:57;;;;;;;2.35;0.50;;;;;;;-145.06;100.00;60892.56;5975109;23;20009;-91
2022/09/17 07:51:35;;;;;;;1.27;0.60;;;;;;;-145.06;100.00;60892.56;5972947;23;20031;-91
2022/09/17 07:54:14;;;;;;;1.20;0.40;;;;;;;-145.06;100.00;60892.56;5972792;23;20032;-90
2022/09/17 07:56:53;;;;;;;0.90;0.50;;;;;;;-145.06;100.00;60892.56;5972974;23;20005;-91
2022/09/17 07:59:32;;;;;;;1.30;0.50;;;;;;;-145.06;100.00;60892.56;5973326;23;20009;-90
2022/09/17 08:02:12;;;;;;;2.00;0.63;;;;;;;-145.06;100.00;60892.56;5974730;23;20160;-91
2022/09/17 08:04:52;;;;;;;1.33;0.57;;;;;;;-145.06;100.00;60892.56;5975603;23;20071;-90
2022/09/17 08:07:31;;;;;;;5.55;0.85;;;;;;;-145.06;100.00;60892.56;5975479;23;20008;-90
2022/09/17 08:10:10;;;;;;;2.40;0.70;;;;;;;-145.06;100.00;60892.56;5975591;23;20001;-91
2022/09/17 08:12:53;;;;;;;2.28;0.45;;;;;;;-145.06;100.00;60892.56;5974812;23;20076;-89
2022/09/17 08:15:32;;;;;;;2.90;0.90;;;;;;;-145.06;100.00;60892.56;5975130;23;20005;-90
2022/09/17 08:18:15;;;;;;;2.38;0.73;;;;;;;-145.06;100.00;60892.56;5975364;23;20008;-93
2022/09/17 08:20:59;;;;;;;1.02;0.38;;;;;;;-145.06;100.00;60892.56;5974465;23;20316;-91
2022/09/17 08:23:40;;;;;;;3.88;0.47;;;;;;;-145.06;100.00;60892.56;5974322;23;20035;-91
2022/09/17 08:26:21;;;;;;;3.05;0.50;;;;;;;-145.06;100.00;60892.56;5974547;23;19996;-91
2022/09/17 08:29:01;;;;;;;1.60;0.50;;;;;;;-145.06;100.00;60892.56;5975055;23;20000;-90
2022/09/17 08:31:40;;;;;;;1.27;0.52;;;;;;;-145.06;100.00;60892.56;5975411;23;20008;-90
2022/09/17 08:34:19;;;;;;;0.60;0.43;;;;;;;-145.06;100.00;60892.56;5975273;23;20088;-92
2022/09/17 08:36:58;;;;;;;2.25;0.70;;;;;;;-145.06;100.00;60892.56;5974966;23;20372;-91
2022/09/17 08:39:37;;;;;;;3.45;0.50;;;;;;;-145.06;100.00;60892.56;5975259;23;20008;-90
2022/09/17 08:42:24;;;;;;;0.73;0.40;;;;;;;-145.06;100.00;60892.56;5975230;23;20040;-90
2022/09/17 08:45:09;;;;;;;2.15;0.38;;;;;;;-145.06;100.00;60892.56;5974934;23;20291;-91
2022/09/17 08:47:48;;;;;;;1.00;0.30;;;;;;;-145.06;100.00;60892.56;5974807;23;20005;-90
2022/09/17 08:50:32;;;;;;;0.68;0.40;;;;;;;-145.06;100.00;60892.56;6006532;23;20310;-91
2022/09/17 08:53:34;;;;;;;1.60;0.65;;;;;;;-145.06;100.00;60892.56;5974154;23;20004;-91
2022/09/17 08:56:17;;;;;;;2.42;0.70;;;;;;;-145.06;100.00;60892.56;5974792;23;20001;-92
2022/09/17 08:59:07;;;;;;;1.30;0.50;;;;;;;-145.06;100.00;60892.56;5974752;23;20009;-91
2022/09/17 09:02:02;;;;;;;;;;;;;;;-145.06;100.00;60892.56;5975981;23;20304;-90
2022/09/17 09:04:57;;;;;;;1.98;0.50;;;;;;;-145.06;100.00;60892.56;5973920;23;19908;-90
2022/09/17 09:07:42;;;;;;;2.17;0.93;;;;;;;-145.06;100.00;60892.56;5975098;23;20032;-91
2022/09/17 09:10:34;;;;;;;1.88;0.63;;;;;;;-145.06;100.00;60892.56;5976246;23;20009;-92
2022/09/17 09:13:21;;;;;;;3.22;0.88;;;;;;;-145.06;100.00;60892.56;5974188;23;20005;-93
2022/09/17 09:16:04;;;;;;;1.05;0.30;;;;;;;-145.06;100.00;60892.56;5976228;23;20008;-91
2022/09/17 09:18:44;;;;;;;2.10;0.40;;;;;;;-145.06;100.00;60892.56;5976746;23;20380;-92
2022/09/17 09:21:27;;;;;;;1.70;0.52;;;;;;;-145.06;100.00;60892.56;5976121;23;20009;-92
2022/09/17 09:24:17;;;;;;;2.13;0.57;;;;;;;-145.06;100.00;60892.56;5975941;23;20359;-91
2022/09/17 09:27:18;;;;;;;1.30;0.35;;;;;;;-145.06;100.00;60892.56;5975831;23;20229;-92
2022/09/17 09:30:08;;;;;;;1.17;0.50;;;;;;;-145.06;100.00;60892.56;5976490;23;20270;-91
2022/09/17 09:33:08;;;;;;;0.75;0.38;;;;;;;-145.06;100.00;60892.56;5976054;23;20001;-91
2022/09/17 09:35:47;;;;;;;1.50;0.60;;;;;;;-145.06;100.00;60892.56;5976219;23;20004;-93
2022/09/17 09:38:43;;;;;;;2.70;0.60;;;;;;;-145.06;100.00;60892.56;5976154;23;20008;-92
2022/09/17 09:41:39;;;;;;;1.33;0.30;;;;;;;-145.06;100.00;60892.56;5976146;23;20080;-91
2022/09/17 09:44:18;;;;;;;1.52;0.45;;;;;;;-145.06;100.00;60892.56;5975945;23;20075;-92
2022/09/17 09:47:03;;;;;;;3.58;0.55;;;;;;;-145.06;100.00;60892.56;5975804;23;20451;-92
2022/09/17 09:49:54;;;;;;;0.73;0.50;;;;;;;-145.06;100.00;60892.56;5976025;23;20000;-90
2022/09/17 09:52:52;;;;;;;1.58;0.50;;;;;;;-145.06;100.00;60892.56;5975795;23;20000;-92
2022/09/17 09:56:09;;;;;;;1.63;0.50;;;;;;;-145.06;100.00;60892.56;5975557;23;20004;-91
2022/09/17 09:58:48;;;;;;;1.75;0.50;;;;;;;-145.06;100.00;60892.56;5976121;23;20080;-91
2022/09/17 10:01:30;;;;;;;1.80;0.53;;;;;;;-145.06;100.00;60892.56;5976237;23;20431;-93
2022/09/17 10:04:17;;;;;;;0.82;0.40;;;;;;;-145.06;100.00;60892.56;5976262;23;20236;-92
2022/09/17 10:07:08;;;;;;;1.70;0.40;;;;;;;-145.06;100.00;60892.56;5975918;23;20376;-91
2022/09/17 10:09:47;;;;;;;1.02;0.40;;;;;;;-145.06;100.00;60892.56;5975786;23;20013;-90
2022/09/17 10:12:29;;;;;;;0.80;0.40;;;;;;;-145.06;100.00;60892.56;5976109;23;20005;-92
2022/09/17 10:15:24;;;;;;;1.60;0.60;;;;;;;-145.06;100.00;60892.56;5984836;23;20232;-93
2022/09/17 10:18:25;;;;;;;1.98;0.50;;;;;;;-145.06;100.00;60892.56;6002678;22;19997;-93
2022/09/17 10:21:04;;;;;;;1.23;0.43;;;;;;;-145.06;100.00;60892.56;5977837;23;20012;-92
2022/09/17 10:23:43;;;;;;;2.20;0.60;;;;;;;-145.06;100.00;60892.56;5976148;23;20036;-92
2022/09/17 10:26:26;;;;;;;3.42;0.50;;;;;;;-145.06;100.00;60892.56;5976260;23;20004;-91
2022/09/17 10:29:13;;;;;;;0.80;0.40;;;;;;;-145.06;100.00;60892.56;5975877;23;20004;-91
2022/09/17 10:31:57;;;;;;;1.25;0.47;;;;;;;-145.06;100.00;60892.56;5975947;23;20009;-92
2022/09/17 10:34:37;;;;;;;1.08;0.50;;;;;;;-145.06;100.00;60892.56;5975837;23;20020;-92
2022/09/17 10:37:42;;;;;;;1.90;0.57;;;;;;;-145.06;100.00;60892.56;5975928;23;20031;-92
2022/09/17 10:40:25;;;;;;;3.28;0.75;;;;;;;-145.06;100.00;60892.56;5976085;23;20000;-92
2022/09/17 10:43:16;;;;;;;1.55;0.35;;;;;;;-145.06;100.00;60892.56;5975807;23;20008;-92
2022/09/17 10:45:58;;;;;;;0.77;0.20;;;;;;;-145.06;100.00;60892.56;5977192;23;20001;-92
2022/09/17 10:48:52;;;;;;;2.40;0.52;;;;;;;-145.06;100.00;60892.56;5975912;23;20012;-93
2022/09/17 10:51:36;;;;;;;1.25;0.30;;;;;;;-145.06;100.00;60892.56;5976407;23;20130;-91
2022/09/17 10:54:33;;;;;;;1.70;0.50;;;;;;;-145.06;100.00;60892.56;5976537;23;20028;-92
2022/09/17 10:57:51;;;;;;;1.50;0.52;;;;;;;-145.06;100.00;60892.56;5975961;23;20012;-92
2022/09/17 11:00:46;;;;;;;1.55;0.40;;;;;;;-145.06;100.00;60892.56;5974972;23;20004;-91
2022/09/17 11:03:40;;;;;;;0.88;0.38;;;;;;;-145.06;100.00;60892.56;5973445;23;20004;-92
2022/09/17 11:07:10;;;;;;;1.38;0.43;;;;;;;-145.06;100.00;60892.56;5972415;23;20008;-93
2022/09/17 11:10:25;;;;;;;1.95;0.50;;;;;;;-145.06;100.00;60892.56;5972562;23;20008;-91
2022/09/17 11:13:37;;;;;;;1.02;0.40;;;;;;;-145.06;100.00;60892.56;5973434;23;20005;-94
2022/09/17 11:16:39;;;;;;;1.52;0.40;;;;;;;-145.06;100.00;60892.56;5972519;23;20013;-92
2022/09/17 11:19:47;;;;;;;1.70;0.35;;;;;;;-145.06;100.00;60892.56;5973082;23;20008;-92
2022/09/17 11:22:50;;;;;;;0.52;0.30;;;;;;;-145.06;100.00;60892.56;5972554;23;20080;-92
2022/09/17 11:29:32;;;;;;;1.48;0.25;;;;;;;-145.06;100.00;60892.56;6009104;23;20004;-93
2022/09/17 11:32:36;;;;;;;0.70;0.20;;;;;;;-145.06;100.00;60892.56;5976070;23;20001;-92
2022/09/17 11:35:15;;;;;;;0.88;0.40;;;;;;;-145.06;100.00;60892.56;5977141;23;20005;-93
2022/09/17 11:38:02;;;;;;;0.73;0.50;;;;;;;-145.06;100.00;60892.56;5975029;23;20009;-93
2022/09/17 11:41:03;;;;;;;1.98;0.55;;;;;;;-145.06;100.00;60892.56;5975350;23;20372;-92
2022/09/17 11:44:08;;;;;;;0.40;0.30;;;;;;;-145.06;100.00;60892.56;5975548;23;20009;-92
2022/09/17 11:46:54;;;;;;;1.48;0.38;;;;;;;-145.06;100.00;60892.56;5976377;23;20071;-92
2022/09/17 11:50:18;;;;;;;0.82;0.35;;;;;;;-145.06;100.00;60892.56;5977284;23;20027;-93
2022/09/17 11:53:22;;;;;;;1.77;0.45;;;;;;;-145.06;100.00;60892.56;5976740;23;20080;-92
2022/09/17 11:56:12;;;;;;;0.43;0.30;;;;;;;-145.06;100.00;60892.56;6008146;23;20001;-91
2022/09/17 11:59:14;;;;;;;1.13;0.50;;;;;;;-145.06;100.00;60892.56;5976832;23;20436;-91
2022/09/17 12:02:08;;;;;;;1.42;0.40;;;;;;;-145.06;100.00;60892.56;5977713;23;20001;-92
2022/09/17 12:05:30;;;;;;;0.65;0.22;;;;;;;-145.06;100.00;60892.56;5976968;23;19996;-92
2022/09/17 12:08:15;;;;;;;0.55;0.40;;;;;;;-145.06;100.00;60892.56;5977398;23;20004;-92
2022/09/17 12:11:42;;;;;;;0.88;0.35;;;;;;;-145.06;100.00;60892.56;5976902;23;20494;-92
2022/09/17 12:14:26;;;;;;;0.77;0.40;;;;;;;-145.06;100.00;60892.56;5891270;23;20000;-91
2022/09/17 12:17:12;;;;;;;2.08;0.50;;;;;;;-145.06;100.00;60892.56;5976975;23;20036;-94
2022/09/17 12:20:05;;;;;;;1.60;0.38;;;;;;;-145.06;100.00;60892.56;5976054;23;20004;-91
2022/09/17 12:22:48;;;;;;;0.77;0.22;;;;;;;-145.06;100.00;60892.56;5976874;23;20005;-94
2022/09/17 12:25:36;;;;;;;0.82;0.40;;;;;;;-145.06;100.00;60892.56;5976149;23;20000;-92
2022/09/17 12:28:26;;;;;;;0.35;0.22;;;;;;;-145.06;100.00;60892.56;5976498;23;20008;-92
2022/09/17 12:31:16;;;;;;;0.40;0.28;;;;;;;-145.06;100.00;60892.56;5977163;23;20009;-94
2022/09/17 12:34:10;;;;;;;0.80;0.40;;;;;;;-145.06;100.00;60892.56;5976905;23;20005;-93
2022/09/17 12:36:58;;;;;;;0.77;0.30;;;;;;;-145.06;100.00;60892.56;5976219;23;20009;-92
2022/09/17 12:40:06;;;;;;;0.20;0.20;;;;;;;-145.06;100.00;60892.56;5976722;23;20522;-93
2022/09/17 12:43:01;;;;;;;0.40;0.20;;;;;;;-145.06;100.00;60892.56;5976279;23;20005;-93
2022/09/17 12:46:06;;;;;;;0.20;0.20;;;;;;;-145.06;100.00;60892.56;5976355;23;19997;-92
2022/09/17 12:48:51;;;;;;;0.82;0.50;;;;;;;-145.06;100.00;60892.56;5975686;23;20419;-91
2022/09/17 12:51:53;;;;;;;0.85;0.30;;;;;;;-145.06;100.00;60892.56;5976554;23;20004;-93
2022/09/17 12:54:49;;;;;;;0.35;0.30;;;;;;;-145.06;100.00;60892.56;5976471;23;20001;-92
2022/09/17 12:57:45;;;;;;;1.02;0.30;;;;;;;-145.06;100.00;60892.56;5975977;23;20009;-93
2022/09/17 13:00:24;;;;;;;0.28;0.20;;;;;;;-145.06;100.00;60892.56;6008623;23;20004;-91
2022/09/17 13:03:14;;;;;;;1.65;0.43;;;;;;;-145.06;100.00;60892.56;5976404;23;20444;-92
2022/09/17 13:06:29;;;;;;;0.80;0.30;;;;;;;-145.06;100.00;60892.56;5975732;23;20309;-92
2022/09/17 13:09:33;;;;;;;2.45;1.27;;;;;;;-145.06;100.00;60892.56;5864746;23;20004;-92
2022/09/17 13:12:39;;;;;;;2.10;1.15;;;;;;;-145.06;100.00;60892.56;5976468;23;20005;-93
2022/09/17 13:15:34;;;;;;;2.55;0.98;;;;;;;-145.06;100.00;60892.56;5976543;23;20004;-91
2022/09/17 13:18:22;;;;;;;1.45;0.80;;;;;;;-145.06;100.00;60892.56;5976588;23;20001;-92
2022/09/17 13:21:01;;;;;;;0.95;0.52;;;;;;;-145.06;100.00;60892.56;5976249;23;20009;-94
2022/09/17 13:23:47;;;;;;;1.25;0.40;;;;;;;-145.06;100.00;60892.56;5975866;23;20403;-92
2022/09/17 13:26:38;;;;;;;1.38;0.50;;;;;;;-145.06;100.00;60892.56;5978700;23;20004;-92
2022/09/17 13:29:48;;;;;;;0.65;0.40;;;;;;;-145.06;100.00;60892.56;5976523;23;20005;-93
2022/09/17 13:39:46;;;;;;;0.80;0.40;;;;;;;-145.06;100.00;60892.56;5976441;23;20079;-91
2022/09/17 13:42:29;;;;;;;1.08;0.43;;;;;;;-145.06;100.00;60892.56;5977641;23;20032;-92
2022/09/17 13:45:19;;;;;;;0.80;0.40;;;;;;;-145.06;100.00;60892.56;5977410;23;20004;-92
2022/09/17 13:48:08;;;;;;;0.90;0.60;;;;;;;-145.06;100.00;60892.56;5977749;23;20004;-92
2022/09/17 13:50:49;;;;;;;0.83;0.30;;;;;;;-145.06;100.00;60892.56;5976573;23;20001;-92
2022/09/17 13:53:37;;;;;;;1.42;0.40;;;;;;;-145.06;100.00;60892.56;5976273;23;20236;-92
2022/09/17 13:56:44;;;;;;;1.50;0.50;;;;;;;-145.06;100.00;60892.56;5976638;23;20071;-92
2022/09/17 13:59:37;;;;;;;;;;;;;;;;;;;;;
2022/09/17 14:02:32;;;;;;;1.85;0.45;;;;;;;-145.06;100.00;60892.56;6009270;23;20031;-92
2022/09/17 14:05:41;;;;;;;1.00;0.40;;;;;;;-145.06;100.00;60892.56;5977665;23;20455;-92
2022/09/17 14:08:49;;;;;;;1.75;0.65;;;;;;;-145.06;100.00;60892.56;5833670;23;20003;-92
2022/09/17 14:11:33;;;;;;;1.23;0.32;;;;;;;-145.06;100.00;60892.56;5833860;23;20003;-93
2022/09/17 14:14:56;;;;;;;0.65;0.30;;;;;;;-145.06;100.00;60892.56;5833122;23;20011;-92
2022/09/17 14:17:59;;;;;;;0.70;0.30;;;;;;;-145.06;100.00;60892.56;5856306;23;20010;-93
2022/09/17 14:20:40;;;;;;;0.40;0.20;;;;;;;-145.06;100.00;60892.56;5976856;23;20079;-93
2022/09/17 14:23:46;;;;;;;0.98;0.25;;;;;;;-145.06;100.00;60892.56;5977706;23;20084;-92
2022/09/17 14:30:38;;;;;;;;;;;;;;;;;;;;;
2022/09/17 14:34:06;;;;;;;;;;;;;;;;;;;;;
2022/09/17 15:35:17;;;;;;;;;;;;;;;;;;;;;
2022/09/17 15:52:40;;;;;;;1.17;0.30;;;;;;;-145.06;100.00;60892.56;5773142;23;20007;-94
2022/09/17 15:56:34;;;;;;;3.03;0.80;;;;;;;-145.06;100.00;60892.56;5907773;23;20005;-94
2022/09/17 15:59:22;;;;;;;1.30;0.50;;;;;;;-145.06;100.00;60892.56;5854982;23;20612;-92
2022/09/17 16:02:04;;;;;;;1.08;0.50;;;;;;;-145.06;100.00;60892.56;5910568;23;20073;-94
2022/09/17 17:28:04;;;;;;;1.08;0.30;;;;;;;-145.06;100.00;60892.56;5754463;24;20084;-91
2022/09/17 17:35:34;;;;;;;2.15;0.60;;;;;;;-145.06;100.00;60892.56;5675430;24;20466;-93
2022/09/17 17:38:54;;;;;;;;;;;;;;;;;;;;;
2022/09/17 17:41:53;;;;;;;0.85;0.45;;;;;;;-145.06;100.00;60892.56;5708007;23;20084;-91
2022/09/17 17:47:36;;;;;;;4.30;1.20;;;;;;;-145.06;100.00;60892.56;5895833;23;20017;-92
2022/09/17 17:50:58;;;;;;;2.78;0.52;;;;;;;-145.06;100.00;60892.56;5883240;23;20014;-93
2022/09/17 17:53:54;;;;;;;;;;;;;;;;;;;;;
2022/09/17 17:57:10;;;;;;;;;;;;;;;;;;;;;
2022/09/17 18:00:18;;;;;;;2.00;0.70;;;;;;;-145.06;100.00;60892.56;5850176;23;20081;-91
2022/09/17 18:03:48;;;;;;;3.78;0.95;;;;;;;-145.06;100.00;60892.56;5883156;23;20026;-94
2022/09/17 18:06:31;;;;;;;0.98;0.70;;;;;;;-145.06;100.00;60892.56;5883293;23;19999;-92
2022/09/17 18:09:16;;;;;;;2.38;0.90;;;;;;;-145.06;100.00;60892.56;5883416;23;20010;-93
2022/09/17 18:11:55;;;;;;;2.08;0.65;;;;;;;-145.06;100.00;60892.56;5885060;23;20003;-92
2022/09/17 18:14:37;;;;;;;2.23;0.80;;;;;;;-145.06;100.00;60892.56;5883818;23;20011;-91
2022/09/17 18:25:10;;;;;;;1.73;0.50;;;;;;;-145.06;100.00;60892.56;5835630;23;20059;-93
2022/09/17 18:35:46;;;;;;;1.90;0.95;;;;;;;-145.06;100.00;60892.56;5703923;24;20010;-92
2022/09/17 18:38:28;;;;;;;2.47;0.90;;;;;;;-145.06;100.00;60892.56;5719451;24;20005;-93
2022/09/17 18:41:15;;;;;;;2.45;1.00;;;;;;;-145.06;100.00;60892.56;5770798;23;20006;-91
2022/09/17 18:44:00;;;;;;;3.15;0.82;;;;;;;-145.06;100.00;60892.56;5883145;23;20006;-92
2022/09/17 18:58:39;;;;;;;2.05;0.75;;;;;;;-145.06;100.00;60892.56;5623189;24;20019;-94
2022/09/17 19:01:23;;;;;;;;;;;;;;;-145.06;100.00;60892.56;5615329;24;20011;-93
2022/09/17 19:04:26;;;;;;;;;;;;;;;;;;;;;
2022/09/17 19:07:18;;;;;;;1.02;0.50;;;;;;;-145.06;100.00;60892.56;5835375;23;20078;-93
2022/09/17 19:10:00;;;;;;;1.60;0.70;;;;;;;-145.06;100.00;60892.56;5812741;23;20014;-93
2022/09/17 19:13:18;;;;;;;1.45;0.60;;;;;;;-145.06;100.00;60892.56;5881422;23;20007;-93
2022/09/17 19:15:58;;;;;;;1.38;0.47;;;;;;;-145.06;100.00;60892.56;5833813;23;20582;-91
2022/09/17 19:18:50;;;;;;;1.20;0.50;;;;;;;-145.06;100.00;60892.56;5880995;23;20010;-92
2022/09/17 19:21:29;;;;;;;1.75;0.52;;;;;;;-145.06;100.00;60892.56;5880565;23;20010;-92
2022/09/17 19:24:23;;;;;;;2.08;0.80;;;;;;;-145.06;100.00;60892.56;5878418;23;20010;-92
2022/09/17 19:27:17;;;;;;;0.85;0.43;;;;;;;-145.06;100.00;60892.56;5884191;23;20026;-91
2022/09/17 19:29:58;;;;;;;2.45;0.52;;;;;;;-145.06;100.00;60892.56;5879844;23;20010;-92
2022/09/17 19:32:37;;;;;;;1.48;0.68;;;;;;;-145.06;100.00;60892.56;5879998;23;20387;-91
2022/09/17 19:35:56;;;;;;;2.80;0.45;;;;;;;-145.06;100.00;60892.56;5878993;23;20006;-92
2022/09/17 19:39:17;;;;;;;;;;;;;;;;;;;;;
2022/09/17 19:42:19;;;;;;;5.10;3.15;;;;;;;-145.06;100.00;60892.56;5889476;23;20316;-91
2022/09/17 19:44:58;;;;;;;4.82;3.03;;;;;;;-145.06;100.00;60892.56;5879525;23;20255;-92
2022/09/17 19:47:47;;;;;;;4.25;2.60;;;;;;;-145.06;100.00;60892.56;5880374;23;20081;-91
2022/09/17 19:50:30;;;;;;;3.87;2.63;;;;;;;-145.06;100.00;60892.56;5878848;23;20010;-93
2022/09/17 19:53:32;;;;;;;;;;;;;;;;;;;;;
2022/09/17 19:56:19;;;;;;;2.67;1.90;;;;;;;-145.06;100.00;60892.56;5889378;23;20314;-91
2022/09/17 19:59:59;;;;;;;2.95;1.80;;;;;;;-145.06;100.00;60892.56;5881401;23;20449;-91
2022/09/17 20:02:41;;;;;;;2.40;1.60;;;;;;;-145.06;100.00;60892.56;5802889;23;20015;-93
2022/09/17 20:05:20;;;;;;;3.08;1.40;;;;;;;-145.06;100.00;60892.56;5803615;23;20031;-92
2022/09/17 20:08:01;;;;;;;4.15;1.70;;;;;;;-145.06;100.00;60892.56;5803150;23;20015;-92
2022/09/17 20:11:26;;;;;;;1.15;0.80;;;;;;;-145.06;100.00;60892.56;5803071;23;20090;-90
2022/09/17 20:14:06;;;;;;;2.15;1.10;;;;;;;-145.06;100.00;60892.56;5803117;23;20011;-91
2022/09/17 20:16:55;;;;;;;2.03;0.80;;;;;;;-145.06;100.00;60892.56;5803023;23;20011;-92
2022/09/17 20:19:55;;;;;;;1.73;0.60;;;;;;;-145.06;100.00;60892.56;5831989;23;20014;-91
2022/09/17 20:23:15;;;;;;;2.33;0.90;;;;;;;-145.06;100.00;60892.56;5880231;23;20014;-92
2022/09/17 20:25:54;;;;;;;3.85;0.90;;;;;;;-145.06;100.00;60892.56;5898676;23;20006;-91
2022/09/17 20:29:37;;;;;;;1.70;0.60;;;;;;;-145.06;100.00;60892.56;5882373;23;20011;-92
2022/09/17 20:32:15;;;;;;;3.00;0.80;;;;;;;-145.06;100.00;60892.56;5882955;23;20003;-92
2022/09/17 20:36:12;;;;;;;4.53;0.95;;;;;;;-145.06;100.00;60892.56;5881967;23;20010;-93
2022/09/17 20:42:05;;;;;;;1.20;0.73;;;;;;;-145.06;100.00;60892.56;5881318;23;20010;-91
2022/09/17 20:45:08;;;;;;;1.45;0.70;;;;;;;-145.06;100.00;60892.56;5882413;23;20006;-92
2022/09/17 20:48:52;;;;;;;;;;;;;;;;;;;;;
2022/09/17 20:52:06;;;;;;;14.85;6.93;;;;;;;-145.06;100.00;60892.56;5894695;23;20006;-91
2022/09/17 20:55:01;;;;;;;8.73;3.95;;;;;;;-145.06;100.00;60892.56;5883765;23;20006;-92
2022/09/17 20:57:41;;;;;;;7.40;3.40;;;;;;;-145.06;100.00;60892.56;5884238;23;20041;-91
2022/09/17 21:00:25;;;;;;;;;;;;;;;-145.06;100.00;60892.56;5884139;23;20342;-92
2022/09/17 21:03:30;;;;;;;3.15;1.60;;;;;;;-145.06;100.00;60892.56;5883949;23;19936;-92
2022/09/17 21:06:48;;;;;;;3.50;1.42;;;;;;;-145.06;100.00;60892.56;5884452;23;20006;-92
2022/09/17 21:09:40;;;;;;;3.10;1.10;;;;;;;-145.06;100.00;60892.56;5860608;23;20006;-94
2022/09/17 21:12:48;;;;;;;1.50;0.68;;;;;;;-145.06;100.00;60892.56;5883790;23;20002;-90
2022/09/17 21:15:34;;;;;;;2.05;0.70;;;;;;;-145.06;100.00;60892.56;5884663;23;20006;-94
2022/09/17 21:18:38;;;;;;;;;;;;;;;;;;;;;
2022/09/17 21:21:33;;;;;;;1.17;0.57;;;;;;;-145.06;100.00;60892.56;5894840;23;20006;-93
2022/09/17 21:24:18;;;;;;;1.13;0.45;;;;;;;-145.06;100.00;60892.56;5884674;23;20010;-93
2022/09/17 21:27:12;;;;;;;0.88;0.47;;;;;;;-145.06;100.00;60892.56;5883437;23;20444;-94
2022/09/17 21:29:51;;;;;;;1.80;0.50;;;;;;;-145.06;100.00;60892.56;5884095;23;20006;-93
2022/09/17 21:32:35;;;;;;;2.50;0.70;;;;;;;-145.06;100.00;60892.56;5884119;23;20006;-93
2022/09/17 21:35:31;;;;;;;;;;;;;;;;;;;;;
2022/09/17 21:38:24;;;;;;;3.85;0.80;;;;;;;-145.06;100.00;60892.56;5894302;23;20006;-94
2022/09/17 21:41:48;;;;;;;1.35;0.60;;;;;;;-145.06;100.00;60892.56;5883547;23;20115;-94
2022/09/17 21:45:02;;;;;;;;;;;;;;;;;;;;;
2022/09/17 21:48:17;;;;;;;;;;;;;;;;;;;;;
2022/09/17 21:51:07;;;;;;;2.03;0.60;;;;;;;-145.06;100.00;60892.56;5895319;23;20282;-93
2022/09/17 21:53:58;;;;;;;;;;;;;;;-145.06;100.00;60892.56;5884948;23;20007;-95
2022/09/17 21:59:55;;;;;;;1.35;0.60;;;;;;;-145.06;100.00;60892.56;5895146;23;20033;-96
2022/09/17 22:02:43;;;;;;;1.33;0.70;;;;;;;-145.06;100.00;60892.56;5884102;23;20010;-96
2022/09/17 22:05:25;;;;;;;1.52;0.60;;;;;;;-145.06;100.00;60892.56;5884474;23;20010;-94
2022/09/17 22:08:35;;;;;;;1.80;0.50;;;;;;;-145.06;100.00;60892.56;5884311;23;20006;-94
2022/09/17 22:11:40;;;;;;;1.60;0.65;;;;;;;-145.06;100.00;60892.56;5883832;23;20010;-94
2022/09/17 22:15:21;;;;;;;1.10;0.73;;;;;;;-145.06;100.00;60892.56;5884202;23;20007;-93
2022/09/17 22:18:35;;;;;;;1.23;0.63;;;;;;;-145.06;100.00;60892.56;5883915;23;20036;-93
2022/09/17 22:21:36;;;;;;;1.60;0.55;;;;;;;-145.06;100.00;60892.56;5859757;23;20326;-93